Startpagina
METAR-TAF:

METAR-TAF

Vliegvelden :

Aeroporto di Lugano

Lugano, Zwitserland

breedte: 46-00N, lengte: 008-58E, hoogte: 273 m

Actueel weer

Dit bericht is 29 minuten geleden gemaakt, om 21:50 UTC
Wind 2 kt uit variabele richting
Temperatuur 7°C
Vochtigheid 36%
Druk 1022 hPa
Zicht 10 km of meer
geen wolken onder 1500 m en geen cumulonimbus

METAR: LSZA 192150Z AUTO VRB02KT CAVOK 07/M07 Q1022

Tijdstip: 23:19 (22:19 UTC)

Verwachting

Dit bericht is 6 uur en het 19 minuten geleden gemaakt, om 16:00 UTC
Verwachting geldig van 19 om 16 UTC tot 19 om 24 UTC
Wind 11 kt uit het noorden
Zicht 10 km of meer
Weinig wolken op 9000 ft

TAF: LSZA 191600Z 1916/1924 01011KT 9999 FEW090

Waarnemingen en weersverwachtingen van meer dan 4000 vliegvelden (METAR en TAF).

De beschikbare stations zijn de gele en rode punten op de kaart.

Ga met uw muis naar het station om de naam te zien.

Klik dan om waarnemingen en weersverwachtingen te zien.

kaart wijzigen: klik op de groene knoppen met een zwart kruis om in te zoomen, op de groene knop met een streepje om uit te zoomen of op de groene pijlen voor aangrenzende kaarten.


METAR-TAF: